Time;durP1;ratioP1;P1;durP2;ratioP2;P2;SDS_P1;SDS_P2;PMS_P1;PMS_P2;Temp;Humidity;BMP_temperature;BMP_pressure;BME280_temperature;BME280_humidity;BME280_pressure;Samples;Min_cycle;Max_cycle;Signal;HPM_P1;HPM_P2
2022/02/05 00:02:20;;;;;;;24.48;17.13;;;12.40;83.80;;;;;;5043409;28;20029;-79
2022/02/05 00:04:47;;;;;;;24.10;16.55;;;12.50;84.00;;;;;;5033966;28;20116;-79
2022/02/05 00:07:15;;;;;;;26.33;17.27;;;12.40;84.10;;;;;;5035144;28;20124;-85
2022/02/05 00:15:49;;;;;;;24.10;15.50;;;12.40;85.10;;;;;;5037265;28;19953;-89
2022/02/05 00:42:32;;;;;;;28.35;17.75;;;12.30;84.60;;;;;;5036924;28;20040;-85
2022/02/05 00:45:12;;;;;;;28.00;17.80;;;12.30;84.80;;;;;;5037558;28;20029;-85
2022/02/05 00:47:46;;;;;;;27.30;17.92;;;12.30;84.90;;;;;;5040372;28;20029;-86
2022/02/05 00:50:24;;;;;;;26.58;17.52;;;12.30;84.90;;;;;;5040480;28;20025;-85
2022/02/05 00:53:04;;;;;;;27.75;17.95;;;12.30;85.00;;;;;;5039535;28;20034;-87
2022/02/05 00:55:34;;;;;;;27.10;17.80;;;12.20;85.10;;;;;;5038927;28;20025;-83
2022/02/05 00:58:03;;;;;;;26.70;18.75;;;12.30;85.50;;;;;;5038660;28;20146;-82
2022/02/05 01:00:31;;;;;;;28.75;17.65;;;12.30;85.40;;;;;;5038285;28;20046;-86
2022/02/05 01:02:58;;;;;;;26.95;17.83;;;12.30;85.90;;;;;;5040640;28;20029;-86
2022/02/05 01:05:27;;;;;;;26.98;18.05;;;12.30;85.40;;;;;;5038910;28;20564;-87
2022/02/05 01:07:56;;;;;;;27.63;18.25;;;12.30;85.70;;;;;;5038844;28;20061;-78
2022/02/05 01:10:24;;;;;;;25.63;17.50;;;12.30;85.30;;;;;;5038777;28;20030;-75
2022/02/05 01:12:55;;;;;;;23.80;17.30;;;12.30;85.70;;;;;;5037498;28;20049;-81
2022/02/05 01:15:29;;;;;;;33.60;17.38;;;12.40;85.80;;;;;;5039523;28;20109;-87
2022/02/05 01:18:01;;;;;;;26.05;17.65;;;12.40;86.10;;;;;;5039124;28;20044;-83
2022/02/05 01:23:17;;;;;;;27.02;17.60;;;12.40;85.90;;;;;;5038889;28;20051;-88
2022/02/05 01:25:50;;;;;;;27.48;17.90;;;12.50;86.30;;;;;;5038567;28;20021;-88
2022/02/05 01:28:21;;;;;;;29.88;19.75;;;12.50;86.20;;;;;;5036603;28;20050;-89
2022/02/05 01:30:52;;;;;;;26.15;17.88;;;12.50;86.20;;;;;;5037228;28;20367;-88
2022/02/05 01:36:28;;;;;;;33.40;18.92;;;12.50;85.90;;;;;;5037595;28;20040;-87
2022/02/05 01:53:25;;;;;;;34.58;20.45;;;12.40;86.10;;;;;;5036723;28;20034;-63
2022/02/05 02:12:00;;;;;;;32.92;21.13;;;12.60;86.30;;;;;;5034314;28;20540;-64
2022/02/05 02:32:18;;;;;;;36.10;20.58;;;12.80;86.30;;;;;;5034830;28;20052;-62
2022/02/05 02:34:49;;;;;;;30.88;19.58;;;12.80;86.10;;;;;;5034705;28;20045;-64
2022/02/05 02:37:20;;;;;;;31.17;20.23;;;12.80;86.20;;;;;;5034824;28;20029;-63
2022/02/05 02:42:37;;;;;;;31.80;18.88;;;12.80;86.00;;;;;;5034845;28;20581;-63
2022/02/05 02:45:03;;;;;;;33.05;20.40;;;12.80;86.30;;;;;;5034803;28;20021;-66
2022/02/05 02:47:30;;;;;;;33.38;19.83;;;12.80;86.20;;;;;;5034716;28;20454;-64
2022/02/05 02:50:02;;;;;;;31.92;18.73;;;12.80;86.00;;;;;;5034697;28;20466;-64
2022/02/05 02:58:01;;;;;;;29.40;19.33;;;12.90;86.10;;;;;;5034795;28;20044;-64
2022/02/05 03:00:27;;;;;;;32.60;19.30;;;12.80;86.30;;;;;;5034948;28;20038;-63
2022/02/05 03:02:55;;;;;;;28.70;18.38;;;12.90;86.40;;;;;;5034431;28;20022;-66
2022/02/05 03:05:23;;;;;;;26.85;17.90;;;12.90;86.30;;;;;;5033065;28;20124;-63
2022/02/05 03:07:55;;;;;;;26.98;18.83;;;12.80;86.30;;;;;;5034121;28;20036;-66
2022/02/05 03:10:21;;;;;;;27.27;18.27;;;12.90;86.20;;;;;;5033645;28;20550;-63
2022/02/05 03:12:47;;;;;;;29.40;17.55;;;12.90;86.30;;;;;;5032761;28;20108;-63
2022/02/05 03:15:18;;;;;;;29.30;17.38;;;12.90;86.30;;;;;;5034008;28;20033;-63
2022/02/05 03:18:04;;;;;;;36.95;18.25;;;12.90;86.40;;;;;;5034254;28;20037;-64
2022/02/05 03:20:38;;;;;;;29.58;16.38;;;12.90;86.20;;;;;;5033141;28;20083;-62
2022/02/05 03:23:04;;;;;;;27.35;16.25;;;12.90;86.60;;;;;;5033938;28;20038;-66
2022/02/05 03:25:33;;;;;;;26.15;16.02;;;12.90;86.70;;;;;;5034065;28;20036;-69
2022/02/05 03:28:20;;;;;;;25.77;15.63;;;12.90;86.70;;;;;;5033779;28;20099;-65
2022/02/05 03:30:47;;;;;;;25.67;15.70;;;12.90;86.80;;;;;;5033930;28;20072;-63
2022/02/05 03:33:33;;;;;;;25.77;14.65;;;12.90;86.80;;;;;;5033606;28;20051;-63
2022/02/05 03:35:59;;;;;;;26.95;15.25;;;12.80;87.20;;;;;;5033727;28;20029;-63
2022/02/05 03:38:29;;;;;;;25.35;14.60;;;12.80;87.10;;;;;;5032520;28;20032;-63
2022/02/05 03:41:01;;;;;;;22.55;14.73;;;12.80;87.10;;;;;;5033337;28;20581;-63
2022/02/05 03:43:47;;;;;;;22.83;13.93;;;12.80;86.60;;;;;;5033096;28;20044;-63
2022/02/05 03:46:13;;;;;;;24.80;13.98;;;12.90;87.30;;;;;;5031993;28;20038;-63
2022/02/05 03:48:39;;;;;;;22.30;13.93;;;12.80;87.30;;;;;;5033221;28;20451;-63
2022/02/05 03:51:04;;;;;;;25.02;14.90;;;12.80;87.10;;;;;;5033335;28;20383;-62
2022/02/05 03:53:30;;;;;;;23.40;13.95;;;12.90;87.20;;;;;;5033038;28;20056;-63
2022/02/05 03:55:56;;;;;;;28.35;14.35;;;12.80;87.20;;;;;;5031879;28;20376;-64
2022/02/05 03:58:22;;;;;;;20.65;13.68;;;12.80;87.40;;;;;;5033020;28;20053;-62
2022/02/05 04:00:47;;;;;;;19.23;13.60;;;12.80;87.50;;;;;;5033023;28;20383;-63
2022/02/05 04:03:13;;;;;;;21.17;13.48;;;12.70;87.50;;;;;;5031622;28;20029;-63
2022/02/05 04:05:39;;;;;;;20.92;13.27;;;12.80;87.90;;;;;;5032772;28;20048;-63
2022/02/05 04:08:14;;;;;;;22.85;13.95;;;12.80;87.70;;;;;;5032813;28;20450;-64
2022/02/05 04:10:46;;;;;;;25.23;14.50;;;12.90;87.20;;;;;;5032748;28;20028;-64
2022/02/05 04:16:22;;;;;;;24.58;14.05;;;12.90;87.70;;;;;;5033127;28;20355;-69
2022/02/05 04:18:53;;;;;;;22.92;13.35;;;12.90;87.70;;;;;;5032736;28;20045;-63
2022/02/05 04:21:20;;;;;;;25.13;12.88;;;12.80;88.00;;;;;;5031973;28;20410;-65
2022/02/05 04:23:47;;;;;;;20.75;13.93;;;12.80;88.10;;;;;;5032574;28;20035;-64
2022/02/05 04:26:17;;;;;;;24.25;13.55;;;12.80;88.50;;;;;;5032728;28;20025;-63
2022/02/05 04:28:45;;;;;;;27.52;14.88;;;12.80;88.50;;;;;;5031541;28;20474;-64
2022/02/05 04:31:11;;;;;;;28.45;13.00;;;12.80;88.70;;;;;;5032566;28;20515;-64
2022/02/05 04:33:39;;;;;;;24.75;14.68;;;12.70;88.60;;;;;;5032565;28;20061;-63
2022/02/05 04:36:09;;;;;;;23.45;13.55;;;12.80;88.80;;;;;;5031139;28;20044;-63
2022/02/05 04:38:37;;;;;;;24.60;14.90;;;12.80;88.80;;;;;;5031375;28;20026;-63
2022/02/05 04:41:12;;;;;;;24.10;13.55;;;12.80;88.80;;;;;;5032596;28;20029;-63
2022/02/05 05:00:24;;;;;;;;;;;12.80;88.90;;;;;;5034532;28;20029;-62
2022/02/05 05:03:10;;;;;;;24.15;12.95;;;12.80;89.90;;;;;;5032346;28;19913;-64
2022/02/05 05:13:32;;;;;;;25.77;14.63;;;12.80;89.20;;;;;;5032404;28;20037;-63
2022/02/05 05:21:15;;;;;;;25.48;12.63;;;12.60;89.10;;;;;;5032161;28;20088;-64
2022/02/05 05:23:41;;;;;;;24.23;14.95;;;12.60;90.00;;;;;;5030669;28;20026;-63
2022/02/05 05:26:09;;;;;;;24.23;14.13;;;12.60;90.10;;;;;;5030908;28;20539;-63
2022/02/05 05:28:53;;;;;;;24.02;14.82;;;12.60;89.80;;;;;;5032073;28;20041;-64
2022/02/05 05:31:23;;;;;;;29.67;13.75;;;12.70;89.80;;;;;;5032006;28;20026;-63
2022/02/05 05:33:51;;;;;;;27.30;13.43;;;12.60;90.00;;;;;;5035319;28;20025;-63
2022/02/05 05:36:18;;;;;;;30.55;13.75;;;12.60;90.50;;;;;;5035698;28;20045;-63
2022/02/05 05:38:45;;;;;;;24.80;14.40;;;12.60;90.40;;;;;;5035728;28;20025;-64
2022/02/05 05:41:11;;;;;;;24.90;15.30;;;12.60;90.40;;;;;;5034766;28;20437;-62
2022/02/05 05:43:53;;;;;;;24.27;15.05;;;12.70;90.40;;;;;;5035481;28;20148;-63
2022/02/05 05:46:42;;;;;;;27.50;15.63;;;12.60;90.30;;;;;;5035407;28;20037;-63
2022/02/05 05:49:20;;;;;;;27.00;16.00;;;12.60;90.10;;;;;;5035891;28;20025;-64
2022/02/05 05:51:48;;;;;;;25.17;14.75;;;12.60;90.20;;;;;;5035466;28;20030;-63
2022/02/05 05:54:18;;;;;;;25.90;15.70;;;12.50;90.30;;;;;;5035352;28;20470;-67
2022/02/05 05:56:47;;;;;;;21.40;14.32;;;12.50;90.20;;;;;;5035485;28;20026;-67
2022/02/05 05:59:13;;;;;;;28.98;16.30;;;12.50;90.30;;;;;;5035391;28;20025;-63
2022/02/05 06:01:41;;;;;;;26.65;15.00;;;12.40;90.40;;;;;;5031920;28;20109;-64
2022/02/05 06:04:09;;;;;;;26.45;15.40;;;12.50;90.70;;;;;;5035229;28;20120;-62
2022/02/05 06:06:36;;;;;;;32.50;15.30;;;12.50;90.50;;;;;;5033786;28;20049;-63
2022/02/05 06:09:02;;;;;;;30.70;17.80;;;12.40;90.50;;;;;;5034076;28;20060;-64
2022/02/05 06:11:27;;;;;;;30.02;15.65;;;12.40;90.60;;;;;;5033913;28;20367;-64
2022/02/05 06:13:53;;;;;;;25.60;16.05;;;12.40;90.70;;;;;;5035056;28;20119;-64
2022/02/05 06:16:23;;;;;;;25.67;15.32;;;12.40;90.80;;;;;;5035773;28;20478;-64
2022/02/05 06:18:49;;;;;;;27.55;16.90;;;12.40;90.80;;;;;;5034475;28;20033;-64
2022/02/05 06:21:17;;;;;;;27.52;15.27;;;12.40;90.70;;;;;;5035083;28;20406;-64
2022/02/05 06:23:49;;;;;;;25.85;15.30;;;12.50;90.80;;;;;;5033564;28;20040;-76
2022/02/05 06:26:16;;;;;;;24.75;14.98;;;12.50;90.60;;;;;;5033742;28;20394;-64
2022/02/05 06:28:44;;;;;;;25.45;14.80;;;12.60;90.50;;;;;;5034869;28;20025;-63
2022/02/05 06:31:12;;;;;;;23.92;14.90;;;12.60;90.50;;;;;;5034766;28;20049;-64
2022/02/05 06:33:37;;;;;;;27.65;16.40;;;12.60;90.40;;;;;;5034550;28;20048;-64
2022/02/05 06:36:04;;;;;;;38.42;15.88;;;12.60;90.60;;;;;;5034689;28;20017;-64
2022/02/05 06:38:30;;;;;;;28.58;16.23;;;12.60;90.60;;;;;;5034815;28;20022;-63
2022/02/05 06:40:56;;;;;;;26.55;15.88;;;12.70;90.50;;;;;;5034942;28;20036;-63
2022/02/05 06:43:21;;;;;;;26.65;15.90;;;12.70;90.50;;;;;;5034096;28;20022;-63
2022/02/05 06:45:47;;;;;;;28.42;16.10;;;12.70;90.50;;;;;;5034597;28;20045;-63
2022/02/05 06:48:15;;;;;;;32.30;16.45;;;12.70;90.60;;;;;;5034946;28;20041;-64
2022/02/05 06:50:43;;;;;;;32.17;16.35;;;12.70;90.30;;;;;;5032902;28;20440;-64
2022/02/05 06:53:15;;;;;;;25.30;15.52;;;12.70;90.20;;;;;;5034432;28;20045;-64
2022/02/05 06:55:41;;;;;;;25.52;14.93;;;12.70;90.40;;;;;;5034034;28;20038;-68
2022/02/05 06:58:07;;;;;;;29.02;16.67;;;12.80;90.60;;;;;;5034236;28;20174;-63
2022/02/05 07:00:34;;;;;;;29.23;14.43;;;12.80;90.60;;;;;;5034713;28;20108;-64
2022/02/05 07:03:00;;;;;;;28.73;14.98;;;12.80;90.50;;;;;;5034422;28;20036;-67
2022/02/05 07:05:28;;;;;;;28.58;16.02;;;12.80;90.70;;;;;;5034231;28;20041;-64
2022/02/05 07:07:55;;;;;;;26.45;15.70;;;12.80;90.70;;;;;;5032403;28;20113;-64
2022/02/05 07:10:24;;;;;;;23.75;14.85;;;12.90;90.80;;;;;;5034177;28;20478;-63
2022/02/05 07:15:27;;;;;;;26.08;15.45;;;12.90;90.90;;;;;;5034263;28;20172;-64
2022/02/05 07:18:09;;;;;;;26.10;15.50;;;12.80;90.80;;;;;;5034023;28;20083;-64
2022/02/05 07:20:51;;;;;;;27.08;15.57;;;12.80;90.70;;;;;;5033937;28;20112;-64
2022/02/05 07:23:46;;;;;;;26.52;16.83;;;12.80;90.70;;;;;;5033783;28;20124;-65
2022/02/05 07:29:13;;;;;;;32.67;17.50;;;12.80;90.60;;;;;;5032776;28;20476;-64
2022/02/05 07:31:42;;;;;;;29.58;16.85;;;12.80;90.40;;;;;;5033637;28;20082;-74
2022/02/05 07:34:09;;;;;;;31.17;16.45;;;12.90;90.40;;;;;;5033956;28;20030;-64
2022/02/05 07:36:39;;;;;;;27.33;15.82;;;12.90;90.20;;;;;;5034076;28;20025;-69
2022/02/05 07:39:07;;;;;;;28.23;16.33;;;13.00;90.10;;;;;;5035280;28;20096;-66
2022/02/05 07:41:34;;;;;;;27.35;16.05;;;13.00;90.10;;;;;;5033933;28;20441;-67
2022/02/05 07:44:01;;;;;;;28.67;17.17;;;12.90;90.20;;;;;;5036198;28;20041;-66
2022/02/05 07:46:29;;;;;;;29.65;17.13;;;12.90;90.00;;;;;;5034861;28;20412;-64
2022/02/05 07:48:56;;;;;;;27.00;17.23;;;12.90;90.10;;;;;;5035162;28;20394;-63
2022/02/05 07:51:28;;;;;;;28.55;16.48;;;13.00;90.10;;;;;;5036355;28;20024;-67
2022/02/05 07:53:55;;;;;;;23.88;15.63;;;13.10;90.10;;;;;;5035207;28;20049;-67
2022/02/05 07:56:21;;;;;;;32.95;16.48;;;13.10;90.00;;;;;;5033711;28;20037;-64
2022/02/05 07:58:48;;;;;;;28.00;17.30;;;13.20;89.70;;;;;;5033431;28;20390;-63
2022/02/05 08:01:15;;;;;;;35.65;17.42;;;13.20;89.50;;;;;;5031610;28;20030;-64
2022/02/05 08:03:40;;;;;;;32.83;17.25;;;13.20;89.10;;;;;;5032919;28;20044;-67
2022/02/05 08:06:14;;;;;;;26.85;16.08;;;13.20;89.40;;;;;;5032803;28;20128;-63
2022/02/05 08:08:40;;;;;;;;;;;13.40;89.50;;;;;;5033346;28;20064;-65
2022/02/05 08:11:10;;;;;;;32.40;17.25;;;13.50;89.90;;;;;;5032621;28;19905;-66
2022/02/05 08:13:35;;;;;;;30.80;15.73;;;13.60;89.00;;;;;;5032599;28;20493;-65
2022/02/05 08:18:38;;;;;;;26.73;16.25;;;13.70;88.50;;;;;;5032539;28;20043;-66
2022/02/05 08:21:04;;;;;;;29.85;16.27;;;13.80;88.20;;;;;;5032745;28;20031;-67
2022/02/05 08:23:31;;;;;;;30.67;16.10;;;14.00;87.80;;;;;;5032457;28;20108;-67
2022/02/05 08:25:57;;;;;;;31.77;16.27;;;14.10;87.20;;;;;;5032844;28;20489;-66
2022/02/05 08:28:23;;;;;;;29.85;16.95;;;14.10;86.90;;;;;;5032774;28;20562;-65
2022/02/05 08:30:48;;;;;;;29.52;16.67;;;14.20;86.40;;;;;;5033022;28;20175;-65
2022/02/05 08:33:14;;;;;;;32.90;17.35;;;14.30;85.70;;;;;;5032794;28;20067;-63
2022/02/05 08:35:41;;;;;;;31.35;16.67;;;14.30;84.90;;;;;;5032630;28;20037;-67
2022/02/05 08:38:08;;;;;;;30.10;17.55;;;14.30;85.00;;;;;;5032162;28;20359;-65
2022/02/05 08:40:33;;;;;;;26.10;16.58;;;14.40;84.80;;;;;;5031048;28;20065;-66
2022/02/05 08:42:59;;;;;;;27.92;17.27;;;14.50;84.60;;;;;;5032637;28;20056;-65
2022/02/05 08:45:25;;;;;;;26.95;16.50;;;14.60;84.40;;;;;;5032549;28;20033;-66
2022/02/05 08:47:53;;;;;;;28.77;16.52;;;14.60;84.10;;;;;;5032301;28;20095;-70
2022/02/05 08:50:19;;;;;;;26.77;14.90;;;14.80;84.10;;;;;;5032105;28;20030;-66
2022/02/05 08:52:44;;;;;;;21.60;15.35;;;14.80;84.40;;;;;;5032358;28;20039;-71
2022/02/05 08:55:10;;;;;;;30.95;15.30;;;14.90;84.50;;;;;;5032414;28;20136;-67
2022/02/05 08:57:39;;;;;;;28.02;15.05;;;14.90;84.60;;;;;;5032448;28;20069;-67
2022/02/05 09:00:12;;;;;;;28.45;14.65;;;14.90;84.70;;;;;;5032479;28;20028;-65
2022/02/05 09:05:19;;;;;;;23.48;13.10;;;15.00;84.80;;;;;;5032293;28;20063;-65
2022/02/05 09:07:45;;;;;;;22.17;12.85;;;15.10;85.50;;;;;;5033984;28;20052;-67
2022/02/05 09:10:39;;;;;;;25.05;14.00;;;15.10;85.30;;;;;;5036312;28;20057;-65
2022/02/05 09:13:36;;;;;;;27.30;15.23;;;15.20;85.20;;;;;;5035956;28;20426;-68
2022/02/05 09:16:00;;;;;;;23.42;13.73;;;15.20;85.10;;;;;;5036072;28;20492;-66
2022/02/05 09:18:27;;;;;;;21.92;13.80;;;15.30;85.40;;;;;;5036013;28;20021;-64
2022/02/05 09:20:53;;;;;;;25.40;13.98;;;15.30;85.30;;;;;;5034801;28;20440;-69
2022/02/05 09:23:19;;;;;;;25.17;14.00;;;15.40;85.10;;;;;;5038955;28;20025;-66
2022/02/05 09:25:45;;;;;;;27.80;14.43;;;15.50;85.10;;;;;;5046419;28;20028;-66
2022/02/05 09:28:11;;;;;;;26.38;15.45;;;15.60;84.50;;;;;;5044998;28;20071;-65
2022/02/05 09:30:50;;;;;;;30.35;14.52;;;15.70;84.20;;;;;;5044576;28;20049;-66
2022/02/05 09:33:17;;;;;;;28.58;13.55;;;15.70;84.20;;;;;;5043494;28;20030;-72
2022/02/05 09:35:43;;;;;;;28.15;15.13;;;15.80;84.30;;;;;;5044851;28;20022;-72
2022/02/05 09:38:09;;;;;;;26.42;15.32;;;15.80;83.80;;;;;;5040149;28;20133;-73
2022/02/05 09:40:34;;;;;;;29.17;15.60;;;15.80;82.80;;;;;;5035697;28;20076;-75
2022/02/05 09:43:00;;;;;;;25.77;15.07;;;15.70;82.70;;;;;;5035365;28;20030;-74
2022/02/05 09:45:26;;;;;;;27.80;14.50;;;15.60;82.90;;;;;;5035616;28;20080;-67
2022/02/05 09:47:52;;;;;;;27.67;15.10;;;15.50;83.20;;;;;;5035549;28;20033;-66
2022/02/05 09:50:20;;;;;;;25.90;15.15;;;15.50;83.20;;;;;;5050920;28;20044;-69
2022/02/05 09:52:51;;;;;;;25.67;14.52;;;15.50;83.00;;;;;;5055040;28;20094;-67
2022/02/05 09:55:17;;;;;;;26.90;13.90;;;15.50;83.10;;;;;;5055319;28;20029;-69
2022/02/05 09:57:43;;;;;;;25.20;14.88;;;15.50;83.40;;;;;;5055137;28;20036;-69
2022/02/05 10:00:18;;;;;;;24.00;15.32;;;15.50;83.40;;;;;;5054942;28;20458;-72
2022/02/05 10:02:50;;;;;;;23.73;14.50;;;15.50;83.80;;;;;;5055102;28;20122;-71
2022/02/05 10:05:22;;;;;;;23.17;14.18;;;15.60;83.10;;;;;;5054880;28;20049;-73
2022/02/05 10:07:54;;;;;;;26.67;15.13;;;15.60;83.10;;;;;;5054650;28;20049;-67
2022/02/05 10:10:21;;;;;;;26.48;14.75;;;15.60;83.60;;;;;;5054941;28;20035;-69
2022/02/05 10:13:11;;;;;;;23.40;14.25;;;15.70;83.10;;;;;;5054663;28;20192;-74
2022/02/05 10:15:40;;;;;;;25.98;14.07;;;15.70;83.40;;;;;;5054870;28;20470;-70
2022/02/05 10:18:07;;;;;;;25.42;13.20;;;15.60;82.70;;;;;;5054119;28;20104;-72
2022/02/05 10:20:33;;;;;;;27.08;14.73;;;15.70;82.80;;;;;;5053781;28;20036;-73
2022/02/05 10:23:09;;;;;;;28.52;13.18;;;15.80;83.00;;;;;;5054462;28;20021;-66
2022/02/05 10:25:36;;;;;;;24.38;13.05;;;15.80;82.70;;;;;;5054578;28;20044;-68
2022/02/05 10:28:10;;;;;;;25.65;11.73;;;16.00;82.10;;;;;;5049540;28;20494;-72
2022/02/05 10:30:36;;;;;;;18.20;9.10;;;16.10;81.60;;;;;;5038410;28;20043;-69
2022/02/05 10:33:13;;;;;;;25.85;11.30;;;16.30;80.90;;;;;;5044288;28;20453;-73
2022/02/05 10:35:49;;;;;;;17.60;8.30;;;16.40;80.10;;;;;;5044597;28;20052;-65
2022/02/05 10:41:01;;;;;;;16.02;6.35;;;16.70;78.50;;;;;;5043522;28;20084;-70
2022/02/05 10:43:35;;;;;;;18.75;6.70;;;16.70;77.80;;;;;;5044918;28;20122;-67
2022/02/05 10:46:03;;;;;;;21.20;7.45;;;16.70;77.40;;;;;;5044047;28;20067;-66
2022/02/05 10:48:29;;;;;;;18.10;6.43;;;16.60;77.70;;;;;;5039264;28;20032;-71
2022/02/05 10:50:57;;;;;;;14.95;5.47;;;16.60;77.80;;;;;;5043252;28;20026;-69
2022/02/05 10:53:38;;;;;;;13.10;4.65;;;16.50;77.60;;;;;;5043516;28;20009;-70
2022/02/05 10:56:28;;;;;;;15.40;5.80;;;16.50;77.40;;;;;;5052546;28;20355;-69
2022/02/05 11:07:24;;;;;;;14.05;5.97;;;16.90;75.80;;;;;;5034045;28;20044;-72
2022/02/05 11:09:53;;;;;;;12.30;5.20;;;16.90;74.60;;;;;;5048774;28;20178;-67
2022/02/05 11:12:21;;;;;;;11.65;5.68;;;16.90;74.30;;;;;;5053707;28;20071;-66
2022/02/05 11:20:12;;;;;;;15.80;7.68;;;17.00;74.70;;;;;;5053132;28;20047;-71
2022/02/05 11:22:56;;;;;;;20.02;8.10;;;16.90;75.10;;;;;;5051563;28;20457;-72
2022/02/05 11:25:24;;;;;;;14.10;6.78;;;16.80;75.10;;;;;;5046943;28;20496;-68
2022/02/05 11:27:52;;;;;;;16.33;6.85;;;16.70;74.00;;;;;;5047730;28;20041;-68
2022/02/05 11:30:31;;;;;;;20.13;7.72;;;16.60;74.30;;;;;;5051763;28;20094;-72
2022/02/05 11:33:03;;;;;;;15.00;7.53;;;16.50;75.30;;;;;;5053223;28;20025;-68
2022/02/05 11:36:09;;;;;;;15.88;7.95;;;16.40;75.40;;;;;;5045174;28;20021;-69
2022/02/05 11:38:37;;;;;;;17.45;7.38;;;16.40;75.20;;;;;;5048852;28;20110;-69
2022/02/05 11:41:06;;;;;;;24.45;8.63;;;16.30;74.70;;;;;;5053227;28;20039;-70
2022/02/05 11:43:34;;;;;;;18.73;8.40;;;16.30;75.30;;;;;;5052790;28;20017;-76
2022/02/05 11:46:17;;;;;;;18.17;7.97;;;16.40;75.40;;;;;;5053004;28;20390;-77
2022/02/05 11:48:55;;;;;;;19.55;8.13;;;16.40;75.50;;;;;;5053038;28;20029;-75
2022/02/05 11:51:28;;;;;;;13.48;7.50;;;16.40;75.30;;;;;;5053101;28;20029;-72
2022/02/05 11:53:57;;;;;;;18.55;7.47;;;16.40;74.60;;;;;;5052575;28;20029;-72
2022/02/05 11:56:52;;;;;;;17.42;7.32;;;16.40;74.70;;;;;;5052789;28;20057;-73
2022/02/05 11:59:35;;;;;;;20.60;7.40;;;16.30;78.10;;;;;;5051060;28;20039;-74
2022/02/05 12:02:20;;;;;;;16.23;7.13;;;16.30;75.00;;;;;;5053086;28;20385;-73
2022/02/05 12:05:06;;;;;;;13.80;6.25;;;16.20;78.10;;;;;;5052773;28;20535;-73
2022/02/05 12:07:32;;;;;;;18.70;6.30;;;16.20;78.20;;;;;;5052406;28;20029;-73
2022/02/05 12:09:59;;;;;;;14.60;6.38;;;16.20;74.40;;;;;;5052587;28;20435;-68
2022/02/05 12:15:18;;;;;;;10.90;5.63;;;16.10;73.80;;;;;;5052315;28;20541;-69
2022/02/05 12:23:53;;;;;;;13.85;6.43;;;16.30;74.10;;;;;;5032478;28;20072;-71
2022/02/05 12:26:20;;;;;;;15.23;6.43;;;16.40;73.10;;;;;;5032413;28;20383;-70
2022/02/05 12:28:50;;;;;;;14.55;7.53;;;16.40;77.40;;;;;;5032207;28;20059;-74
2022/02/05 12:31:19;;;;;;;18.67;7.82;;;16.40;73.30;;;;;;5049219;28;20029;-69
2022/02/05 12:33:47;;;;;;;17.25;7.75;;;16.40;73.50;;;;;;5052059;28;20041;-70
2022/02/05 12:36:14;;;;;;;17.38;8.23;;;16.30;73.70;;;;;;5051759;28;20454;-72
2022/02/05 12:38:44;;;;;;;19.20;9.00;;;16.30;73.70;;;;;;5052226;28;20036;-71
2022/02/05 12:41:12;;;;;;;20.88;8.88;;;16.30;74.80;;;;;;5051914;28;20025;-68
2022/02/05 12:43:59;;;;;;;18.25;8.50;;;16.30;74.00;;;;;;5051569;28;20401;-69
2022/02/05 12:46:36;;;;;;;19.48;7.43;;;16.30;74.30;;;;;;5052272;28;20112;-69
2022/02/05 12:49:07;;;;;;;16.02;7.47;;;16.30;74.10;;;;;;5050310;28;20037;-70
2022/02/05 12:51:33;;;;;;;17.17;8.13;;;16.30;74.00;;;;;;5040073;28;20052;-70
2022/02/05 12:54:17;;;;;;;16.98;8.40;;;16.40;73.60;;;;;;5031925;28;20372;-71
2022/02/05 12:56:44;;;;;;;;;;;16.50;73.60;;;;;;5032591;28;20545;-71
2022/02/05 12:59:15;;;;;;;18.05;7.80;;;16.60;72.30;;;;;;5030810;28;19927;-70
2022/02/05 13:01:54;;;;;;;14.68;8.65;;;16.60;72.60;;;;;;5032254;28;20026;-71
2022/02/05 13:04:22;;;;;;;22.17;8.20;;;16.70;73.40;;;;;;5030525;28;20025;-65
2022/02/05 13:07:18;;;;;;;18.98;8.57;;;16.70;71.70;;;;;;5031640;28;20033;-71
2022/02/05 13:09:51;;;;;;;16.70;7.88;;;16.70;72.60;;;;;;5032135;28;20060;-69
2022/02/05 13:12:23;;;;;;;19.25;8.50;;;16.80;71.50;;;;;;5031969;28;20030;-70
2022/02/05 13:14:50;;;;;;;19.65;8.52;;;16.70;71.10;;;;;;5031889;28;20067;-70
2022/02/05 13:17:36;;;;;;;24.02;10.90;;;16.80;71.10;;;;;;5031860;28;20033;-69
2022/02/05 13:36:08;;;;;;;11.13;5.88;;;17.10;70.20;;;;;;5051132;28;20036;-69
2022/02/05 13:39:00;;;;;;;15.13;6.13;;;17.10;68.80;;;;;;5051686;28;20024;-71
2022/02/05 13:41:32;;;;;;;15.43;6.20;;;17.10;68.50;;;;;;5051578;28;20116;-69
2022/02/05 13:43:59;;;;;;;19.73;7.15;;;17.20;67.50;;;;;;5051680;28;20017;-69
2022/02/05 13:46:26;;;;;;;16.77;6.75;;;17.20;67.40;;;;;;5051833;28;20036;-70
2022/02/05 13:48:52;;;;;;;17.02;6.28;;;17.40;67.40;;;;;;5051288;28;20051;-70
2022/02/05 13:51:21;;;;;;;15.93;6.18;;;17.60;66.30;;;;;;5052195;28;20021;-70
2022/02/05 13:53:55;;;;;;;17.52;7.03;;;17.70;66.20;;;;;;5053603;28;20052;-72
2022/02/05 13:56:21;;;;;;;12.07;5.65;;;17.80;65.40;;;;;;5055460;28;20020;-73
2022/02/05 13:58:48;;;;;;;15.05;5.95;;;17.70;64.90;;;;;;5055437;28;20024;-69
2022/02/05 14:01:47;;;;;;;11.07;6.28;;;17.60;64.70;;;;;;5055710;28;20558;-69
2022/02/05 14:04:23;;;;;;;11.95;5.70;;;17.50;64.70;;;;;;5055004;28;20436;-71
2022/02/05 14:07:01;;;;;;;13.32;6.63;;;17.40;65.00;;;;;;5053916;28;20057;-73
2022/02/05 14:09:32;;;;;;;12.75;5.65;;;17.20;65.10;;;;;;5055778;28;20111;-77
2022/02/05 14:12:19;;;;;;;15.63;5.20;;;17.10;65.10;;;;;;5055626;28;20036;-78
2022/02/05 14:15:03;;;;;;;9.93;5.30;;;17.10;65.90;;;;;;5055034;28;20025;-75
2022/02/05 14:17:31;;;;;;;12.93;5.15;;;16.90;66.60;;;;;;5055338;28;20028;-68
2022/02/05 14:20:07;;;;;;;12.50;5.30;;;16.80;66.80;;;;;;5055310;28;20805;-80
2022/02/05 14:22:37;;;;;;;15.27;5.22;;;16.80;67.30;;;;;;5055130;28;20516;-71
2022/02/05 14:25:15;;;;;;;12.68;5.07;;;16.70;67.70;;;;;;5055167;28;20045;-71
2022/02/05 14:28:04;;;;;;;12.65;4.80;;;16.70;67.30;;;;;;5047750;28;20123;-72
2022/02/05 14:30:31;;;;;;;11.55;4.78;;;16.60;66.60;;;;;;5048999;28;20112;-72
2022/02/05 14:32:59;;;;;;;14.10;5.43;;;16.60;67.00;;;;;;5046008;28;20438;-71
2022/02/05 14:40:46;;;;;;;11.93;5.03;;;16.50;67.40;;;;;;5054926;28;20036;-69
2022/02/05 14:43:15;;;;;;;11.73;4.72;;;16.40;68.00;;;;;;5053043;28;20029;-71
2022/02/05 14:45:41;;;;;;;13.55;5.05;;;16.40;67.00;;;;;;5043934;28;20064;-72
2022/02/05 14:48:07;;;;;;;12.25;4.57;;;16.40;67.70;;;;;;5054323;28;20068;-70
2022/02/05 14:50:35;;;;;;;10.30;4.25;;;16.40;66.40;;;;;;5037363;28;20432;-74
2022/02/05 14:53:02;;;;;;;12.27;4.95;;;16.40;66.60;;;;;;5052997;28;20478;-72
2022/02/05 14:55:28;;;;;;;18.05;4.53;;;16.40;66.60;;;;;;5054485;28;20025;-72
2022/02/05 14:57:53;;;;;;;12.07;4.57;;;16.40;66.50;;;;;;5054364;28;20025;-74
2022/02/05 15:00:20;;;;;;;11.50;4.70;;;16.40;66.60;;;;;;5054455;28;20104;-75
2022/02/05 15:02:51;;;;;;;15.05;8.27;;;16.40;66.80;;;;;;5054345;28;20049;-73
2022/02/05 15:05:17;;;;;;;14.60;6.05;;;16.50;67.10;;;;;;5053362;28;20106;-73
2022/02/05 15:07:47;;;;;;;13.27;5.30;;;16.50;66.90;;;;;;5052981;28;20351;-79
2022/02/05 15:10:16;;;;;;;12.85;5.50;;;16.50;66.70;;;;;;5055013;28;20029;-72
2022/02/05 15:12:42;;;;;;;13.88;6.20;;;16.50;66.90;;;;;;5053933;28;20037;-71
2022/02/05 15:15:16;;;;;;;13.32;5.20;;;16.60;66.90;;;;;;5053557;28;20411;-69
2022/02/05 15:17:43;;;;;;;14.38;5.28;;;16.70;67.00;;;;;;5042323;28;20032;-71
2022/02/05 15:20:16;;;;;;;14.40;5.60;;;16.70;66.70;;;;;;5035843;28;20037;-69
2022/02/05 15:22:47;;;;;;;13.27;4.53;;;16.80;67.00;;;;;;5036770;28;20029;-69
2022/02/05 15:25:13;;;;;;;11.45;5.05;;;16.70;66.80;;;;;;5034053;28;20033;-71
2022/02/05 15:27:41;;;;;;;13.43;5.25;;;16.70;66.80;;;;;;5048709;28;20565;-71
2022/02/05 15:30:10;;;;;;;13.27;5.00;;;16.70;66.90;;;;;;5042585;28;20034;-68
2022/02/05 15:32:40;;;;;;;12.15;4.70;;;16.60;66.70;;;;;;5045828;28;20397;-70
2022/02/05 15:35:07;;;;;;;14.07;4.72;;;16.60;66.90;;;;;;5036620;28;20065;-75
2022/02/05 15:37:41;;;;;;;13.98;4.90;;;16.50;66.40;;;;;;5041357;28;20135;-72
2022/02/05 15:43:26;;;;;;;11.95;5.47;;;16.50;67.00;;;;;;5045083;28;20037;-75
2022/02/05 15:46:14;;;;;;;13.43;4.78;;;16.50;67.00;;;;;;5071314;28;20024;-70
2022/02/05 15:48:42;;;;;;;12.85;4.75;;;16.40;66.60;;;;;;5071099;28;20085;-72
2022/02/05 15:51:09;;;;;;;13.68;5.30;;;16.40;66.70;;;;;;5048596;28;20049;-73
2022/02/05 15:53:38;;;;;;;10.80;5.00;;;16.40;66.90;;;;;;5040390;28;20025;-73
2022/02/05 15:56:05;;;;;;;15.32;4.72;;;16.40;66.90;;;;;;5041784;28;20195;-72